Aérodrome :
LOGIN :

S'inscrire | Disclaimer

   EN    FR    IT 

 










Légende :    VFR   VFR Marginal   IFR   IFR Intensif   IFR Très Intensif
Visi : 
Plafond : 
>= 8 km
>= 3000ft
5 à 8 km
1000 à 3000 ft
1500m à 5 km
500 à 1000 ft
800 à 1500m
200 à 500 ft
< 800m
< 200 ft
Symboles :   Orages  Brouillard  Fortes neiges  Fortes précipitations  Vent > 20 kt
SIGMETs :   Divers  Orages  Givrage  Turbulence  Onde Orograph.  Cendres Volcan.







- Altitude de l'aérodrome : 220 ft
- Code IATA : CWL
- Voir les cartes d'approche


EGFF - Cardiff Rhoose

DERNIER METAR :
  • 221220Z AUTO 21016KT 9999 -RA BKN020/// //////TCU 15/12 Q0993

METARs EXPIRÉS :
  • 221150Z AUTO 20018G30KT 9999 BKN022/// BKN027/// //////TCU 15/12 Q0994
  • 221120Z AUTO 20017KT 9999 SCT025 BKN032 15/11 Q0994
  • 221050Z AUTO 21017G30KT 9999 BKN024/// OVC040/// //////TCU 15/11 Q0995
  • 221020Z AUTO 22017G28KT 9999 BKN024 OVC030 14/11 Q0996
  • 220950Z AUTO 22017G27KT 9999 BKN021 OVC029 14/11 Q0996

TAF TAF EGFF
Valide du 22 à 12h jusqu'au 23 à 12h UTC


221105Z 2212/2312 20018G30KT 9999 SCT020
TEMPO 2212/2304 7000 RA BKN012
PROB30
TEMPO 2212/2224 20025G40KT 3000 +RA BKN005
PROB30
TEMPO 2300/2303 24025G40KT
BECMG 2303/2306 26020G35KT
ATIS : +44 1446 729 319
Pas de NOTAMs connus pour ce terrain.
2 SIGMETs publiés pour la FIR London (EGTT) :
 
Turbulence forte
EGTT SIGMET 05 VALID 221000/221400 EGRR
EGTT LONDON FIR SEV TURB FCST WI N4850 W00800 - N5100 W00800 - N5220 W00530 - N5345 W00530 - N5439 W00223 - N4932 W00435 - N4850 W00800 SFC/FL060 MOV ENE 15KT INTSF=
Onde orographique forte
EGTT SIGMET 04 VALID 221000/221400 EGRR
EGTT LONDON FIR SEV MTW FCST WI N5500 E00045 - N5412 E00110 - N5047 W00255 - N5045 W00430 - N5500 W00415 - N5500 W00100 - N5500 E00045 FL020/180 STNR INTSF=



MET'MAP, la Météo Aéronautique d'un coup d'oeil ! - Copyright ORBIFLY Décembre 2007 - Disclaimer

ORBIFLY MET'MAP TEAM :

Programmation & Développement : Alexandra Zaïnal
Conception & Développement : Baudouin d'Aumeries
Co-Programmation & Développement : Marc-Olivier Méhu
Soutien technique & logistique : Manuel Goepfert

Contact : metmap@orbifly.com




SOURCES & CREDITS :

   NOAA